createdAt,value
2023-03-25T00:01:01.058Z,65.81
2023-03-25T00:03:16.019Z,65.57
2023-03-25T00:05:29.088Z,65.39
2023-03-25T00:07:41.824Z,65.97
2023-03-25T00:09:55.628Z,66.15
2023-03-25T00:12:08.479Z,66.51
2023-03-25T00:14:21.160Z,66.83
2023-03-25T00:16:34.455Z,66.57
2023-03-25T00:18:49.166Z,66.63
2023-03-25T00:21:03.299Z,66.83
2023-03-25T00:23:16.086Z,67.33
2023-03-25T00:25:28.896Z,67.32
2023-03-25T00:27:42.032Z,67.38
2023-03-25T00:29:55.757Z,66.34
2023-03-25T00:32:08.860Z,66.03
2023-03-25T00:34:22.014Z,66.16
2023-03-25T00:36:38.788Z,66.37
2023-03-25T00:38:54.314Z,66.56
2023-03-25T00:41:14.761Z,66.92
2023-03-25T00:43:27.346Z,66.87
2023-03-25T00:45:40.086Z,67.11
2023-03-25T00:47:52.751Z,67.21
2023-03-25T00:50:05.878Z,67.38
2023-03-25T00:52:19.403Z,67.71
2023-03-25T00:54:35.287Z,68.03
2023-03-25T00:56:48.260Z,68.38
2023-03-25T00:59:01.733Z,68.60
2023-03-25T01:01:20.033Z,68.90
2023-03-25T01:03:33.107Z,68.95
2023-03-25T01:05:46.694Z,69.39
2023-03-25T01:07:59.577Z,69.55
2023-03-25T01:10:16.469Z,69.89
2023-03-25T01:12:29.928Z,69.94
2023-03-25T01:14:43.261Z,70.12
2023-03-25T01:16:56.782Z,70.17
2023-03-25T01:19:10.100Z,70.07
2023-03-25T01:21:23.266Z,70.10
2023-03-25T01:23:36.195Z,70.29
2023-03-25T01:25:50.653Z,70.21
2023-03-25T01:28:03.468Z,70.16
2023-03-25T01:30:18.513Z,70.22
2023-03-25T01:32:32.485Z,70.36
2023-03-25T01:34:46.048Z,70.40
2023-03-25T01:36:59.704Z,70.25
2023-03-25T01:39:13.743Z,70.32
2023-03-25T01:41:29.215Z,70.39
2023-03-25T01:43:46.274Z,70.16
2023-03-25T01:45:58.783Z,70.23
2023-03-25T01:48:17.103Z,70.34
2023-03-25T01:50:30.909Z,70.42
2023-03-25T01:52:45.098Z,70.49
2023-03-25T01:54:59.491Z,70.34
2023-03-25T01:57:13.987Z,70.34
2023-03-25T01:59:30.849Z,70.42
2023-03-25T02:01:46.846Z,70.29
2023-03-25T02:04:10.798Z,70.34
2023-03-25T02:06:29.722Z,70.43
2023-03-25T02:08:44.843Z,70.53
2023-03-25T02:10:58.573Z,70.33
2023-03-25T02:13:11.774Z,70.52
2023-03-25T02:15:24.863Z,70.59
2023-03-25T02:17:46.174Z,70.89
2023-03-25T02:20:28.793Z,70.89
2023-03-25T02:23:32.392Z,70.86
2023-03-25T02:26:14.748Z,71.10
2023-03-25T02:28:37.975Z,71.01
2023-03-25T02:31:15.226Z,71.06
2023-03-25T02:34:05.181Z,71.01
2023-03-25T02:36:51.498Z,70.91
2023-03-25T02:39:11.470Z,70.98
2023-03-25T02:41:32.904Z,71.15
2023-03-25T02:43:50.082Z,71.06
2023-03-25T02:46:08.066Z,71.28
2023-03-25T02:48:25.701Z,71.15
2023-03-25T02:50:42.073Z,71.09
2023-03-25T02:52:59.459Z,71.22
2023-03-25T02:55:16.096Z,71.55
2023-03-25T02:57:32.132Z,71.59
2023-03-25T02:59:47.286Z,71.65
2023-03-25T03:02:04.317Z,71.80
2023-03-25T03:04:17.335Z,71.78
2023-03-25T03:06:32.151Z,71.88
2023-03-25T03:09:02.128Z,71.93
2023-03-25T03:11:21.599Z,71.96
2023-03-25T03:13:46.431Z,72.11
2023-03-25T03:16:10.510Z,72.02
2023-03-25T03:18:35.411Z,72.17
2023-03-25T03:20:56.654Z,72.04
2023-03-25T03:23:14.325Z,72.24
2023-03-25T03:25:35.118Z,72.28
2023-03-25T03:27:55.175Z,72.44
2023-03-25T03:30:16.541Z,72.27
2023-03-25T03:32:36.031Z,71.94
2023-03-25T03:34:52.503Z,71.85
2023-03-25T03:37:09.102Z,71.69
2023-03-25T03:39:26.676Z,71.41
2023-03-25T03:41:45.769Z,70.93
2023-03-25T03:44:01.503Z,70.82
2023-03-25T03:46:19.599Z,70.83
2023-03-25T03:48:36.201Z,70.64
2023-03-25T03:50:54.027Z,70.81
2023-03-25T03:53:12.962Z,70.48
2023-03-25T03:55:30.586Z,70.45
2023-03-25T03:57:46.199Z,70.49
2023-03-25T04:00:09.303Z,70.79
2023-03-25T04:02:33.760Z,70.68
2023-03-25T04:04:46.666Z,70.69
2023-03-25T04:07:06.629Z,70.62
2023-03-25T04:09:29.109Z,70.65
2023-03-25T04:11:41.964Z,70.76
2023-03-25T04:13:58.905Z,70.96
2023-03-25T04:16:12.862Z,70.60
2023-03-25T04:18:25.509Z,70.82
2023-03-25T04:20:39.348Z,70.88
2023-03-25T04:22:52.927Z,70.69
2023-03-25T04:25:05.908Z,70.61
2023-03-25T04:27:18.589Z,70.91
2023-03-25T04:29:33.197Z,70.77
2023-03-25T04:31:47.328Z,70.84
2023-03-25T04:34:00.724Z,70.71
2023-03-25T04:36:16.433Z,70.99
2023-03-25T04:38:30.532Z,70.82
2023-03-25T04:40:48.098Z,70.98
2023-03-25T04:43:01.167Z,70.91
2023-03-25T04:45:17.853Z,70.99
2023-03-25T04:47:31.727Z,71.51
2023-03-25T04:49:46.191Z,71.42
2023-03-25T04:52:03.222Z,71.44
2023-03-25T04:54:17.797Z,71.60
2023-03-25T04:56:30.836Z,71.48
2023-03-25T04:58:45.575Z,71.40
2023-03-25T05:00:58.515Z,71.98
2023-03-25T05:03:12.818Z,71.98
2023-03-25T05:05:26.755Z,71.91
2023-03-25T05:07:39.800Z,72.09
2023-03-25T05:09:52.934Z,72.18
2023-03-25T05:12:05.915Z,72.10
2023-03-25T05:14:20.677Z,72.36
2023-03-25T05:16:33.980Z,72.24
2023-03-25T05:18:47.839Z,72.48
2023-03-25T05:21:01.995Z,72.30
2023-03-25T05:23:17.383Z,72.50
2023-03-25T05:25:30.177Z,72.58
2023-03-25T05:27:43.814Z,72.50
2023-03-25T05:29:59.440Z,72.46
2023-03-25T05:32:14.900Z,72.57
2023-03-25T05:34:31.084Z,72.75
2023-03-25T05:36:43.666Z,72.85
2023-03-25T05:38:57.845Z,72.77
2023-03-25T05:41:11.808Z,73.01
2023-03-25T05:43:25.092Z,73.20
2023-03-25T05:45:38.893Z,73.13
2023-03-25T05:47:52.227Z,73.32
2023-03-25T05:50:04.993Z,73.38
2023-03-25T05:52:17.992Z,73.55
2023-03-25T05:54:31.902Z,73.65
2023-03-25T05:56:45.982Z,73.77
2023-03-25T05:58:59.284Z,73.83
2023-03-25T06:01:31.169Z,73.92
2023-03-25T06:03:44.660Z,73.80
2023-03-25T06:05:58.016Z,73.77
2023-03-25T06:08:10.672Z,73.61
2023-03-25T06:10:24.186Z,73.82
2023-03-25T06:12:39.844Z,73.85
2023-03-25T06:14:55.108Z,73.68
2023-03-25T06:17:08.125Z,73.90
2023-03-25T06:19:21.016Z,74.00
2023-03-25T06:21:35.616Z,74.00
2023-03-25T06:23:49.261Z,73.89
2023-03-25T06:26:01.958Z,74.05
2023-03-25T06:28:14.563Z,74.00
2023-03-25T06:30:28.090Z,74.13
2023-03-25T06:32:41.511Z,74.20
2023-03-25T06:34:54.360Z,74.29
2023-03-25T06:37:07.605Z,74.46
2023-03-25T06:39:20.442Z,74.60
2023-03-25T06:41:33.088Z,74.52
2023-03-25T06:44:00.513Z,74.79
2023-03-25T06:46:46.944Z,74.69
2023-03-25T06:49:02.279Z,74.56
2023-03-25T06:51:15.187Z,74.75
2023-03-25T06:53:28.287Z,74.94
2023-03-25T06:55:42.594Z,74.97
2023-03-25T06:57:57.631Z,75.09
2023-03-25T07:00:13.129Z,75.03
2023-03-25T07:02:26.010Z,75.22
2023-03-25T07:04:39.580Z,75.22
2023-03-25T07:06:53.141Z,75.19
2023-03-25T07:09:05.951Z,75.11
2023-03-25T07:11:20.506Z,75.37
2023-03-25T07:13:34.143Z,75.36
2023-03-25T07:15:47.378Z,75.36
2023-03-25T07:18:01.175Z,75.47
2023-03-25T07:20:17.473Z,75.60
2023-03-25T07:22:30.612Z,75.53
2023-03-25T07:24:43.332Z,75.40
2023-03-25T07:26:56.561Z,75.61
2023-03-25T07:29:12.712Z,75.50
2023-03-25T07:31:25.563Z,75.53
2023-03-25T07:33:39.092Z,75.52
2023-03-25T07:35:52.572Z,75.68
2023-03-25T07:38:06.003Z,75.64
2023-03-25T07:40:19.307Z,75.72
2023-03-25T07:42:32.111Z,75.83
2023-03-25T07:45:08.528Z,75.86
2023-03-25T07:47:22.314Z,75.88
2023-03-25T07:49:37.199Z,75.68
2023-03-25T07:51:52.324Z,75.58
2023-03-25T07:54:05.808Z,75.81
2023-03-25T07:56:19.885Z,75.76
2023-03-25T07:58:32.682Z,75.66
2023-03-25T08:00:46.209Z,75.79
2023-03-25T08:02:59.547Z,75.67
2023-03-25T08:05:13.566Z,75.67
2023-03-25T08:07:26.645Z,75.73
2023-03-25T08:09:39.606Z,75.39
2023-03-25T08:11:53.832Z,75.53
2023-03-25T08:14:08.575Z,75.63
2023-03-25T08:16:21.688Z,75.63
2023-03-25T08:18:34.761Z,75.52
2023-03-25T08:20:49.119Z,75.58
2023-03-25T08:23:02.331Z,75.66
2023-03-25T08:25:17.243Z,75.42
2023-03-25T08:27:30.011Z,75.47
2023-03-25T08:29:44.122Z,75.61
2023-03-25T08:31:57.385Z,75.68
2023-03-25T08:34:10.407Z,75.73
2023-03-25T08:36:24.344Z,75.49
2023-03-25T08:38:37.082Z,75.62
2023-03-25T08:40:50.045Z,75.66
2023-03-25T08:43:02.713Z,75.79
2023-03-25T08:45:16.782Z,75.79
2023-03-25T08:47:30.046Z,75.52
2023-03-25T08:49:42.721Z,75.58
2023-03-25T08:51:58.915Z,75.56
2023-03-25T08:54:12.045Z,75.75
2023-03-25T08:56:25.389Z,75.59
2023-03-25T08:58:38.553Z,75.76
2023-03-25T09:00:55.514Z,75.65
2023-03-25T09:03:09.979Z,75.70
2023-03-25T09:05:23.089Z,75.83
2023-03-25T09:07:37.306Z,75.96
2023-03-25T09:09:50.542Z,75.75
2023-03-25T09:12:03.620Z,75.93
2023-03-25T09:14:16.574Z,75.88
2023-03-25T09:16:30.376Z,75.97
2023-03-25T09:18:43.224Z,76.11
2023-03-25T09:21:01.427Z,76.08
2023-03-25T09:23:16.503Z,75.94
2023-03-25T09:25:29.480Z,76.05
2023-03-25T09:27:43.016Z,76.29
2023-03-25T09:29:56.389Z,76.23
2023-03-25T09:32:10.205Z,76.12
2023-03-25T09:34:22.953Z,76.19
2023-03-25T09:36:35.837Z,76.29
2023-03-25T09:38:48.761Z,76.28
2023-03-25T09:41:01.967Z,76.13
2023-03-25T09:43:38.872Z,76.15
2023-03-25T09:45:53.258Z,76.28
2023-03-25T09:48:13.518Z,76.11
2023-03-25T09:50:27.991Z,76.10
2023-03-25T09:52:50.969Z,76.13
2023-03-25T09:55:08.211Z,76.17
2023-03-25T09:57:25.786Z,76.17
2023-03-25T09:59:45.199Z,76.09
2023-03-25T10:02:05.730Z,76.02
2023-03-25T10:04:56.153Z,76.17
2023-03-25T10:07:19.918Z,76.00
2023-03-25T10:09:51.065Z,76.13
2023-03-25T10:12:12.249Z,76.01
2023-03-25T10:14:36.347Z,75.92
2023-03-25T10:17:09.552Z,76.20
2023-03-25T10:19:36.147Z,76.07
2023-03-25T10:21:56.725Z,76.13
2023-03-25T10:24:17.387Z,75.88
2023-03-25T10:26:33.644Z,76.11
2023-03-25T10:28:52.984Z,76.11
2023-03-25T10:31:08.850Z,76.32
2023-03-25T10:33:32.647Z,76.39
2023-03-25T10:35:49.640Z,76.06
2023-03-25T10:38:13.886Z,76.22
2023-03-25T10:40:32.814Z,76.30
2023-03-25T10:42:56.609Z,76.20
2023-03-25T10:45:16.267Z,76.17
2023-03-25T10:47:33.027Z,76.34
2023-03-25T10:49:50.254Z,76.17
2023-03-25T10:52:05.162Z,76.26
2023-03-25T10:54:20.941Z,76.20
2023-03-25T10:56:38.839Z,76.07
2023-03-25T10:58:54.688Z,76.08
2023-03-25T11:01:16.249Z,76.11
2023-03-25T11:03:34.099Z,76.15
2023-03-25T11:05:47.359Z,76.24
2023-03-25T11:08:11.903Z,76.15
2023-03-25T11:10:37.179Z,76.22
2023-03-25T11:12:50.357Z,76.25
2023-03-25T11:15:04.472Z,76.30
2023-03-25T11:17:26.744Z,76.28
2023-03-25T11:19:44.033Z,76.35
2023-03-25T11:22:02.220Z,76.44
2023-03-25T11:24:18.400Z,76.23
2023-03-25T11:26:39.536Z,76.23
2023-03-25T11:28:57.791Z,76.41
2023-03-25T11:31:20.167Z,76.45
2023-03-25T11:33:32.862Z,76.32
2023-03-25T11:35:50.508Z,76.23
2023-03-25T11:38:04.554Z,76.21
2023-03-25T11:40:22.027Z,76.20
2023-03-25T11:42:43.563Z,76.42
2023-03-25T11:45:00.729Z,76.43
2023-03-25T11:47:23.455Z,76.48
2023-03-25T11:49:38.565Z,76.62
2023-03-25T11:51:52.925Z,76.39
2023-03-25T11:54:11.377Z,76.47
2023-03-25T11:56:30.415Z,76.09
2023-03-25T11:58:45.082Z,76.14
2023-03-25T12:01:07.104Z,76.23
2023-03-25T12:03:29.954Z,76.25
2023-03-25T12:05:45.110Z,76.26
2023-03-25T12:08:05.221Z,76.43
2023-03-25T12:10:26.985Z,76.36
2023-03-25T12:12:59.667Z,76.46
2023-03-25T12:15:26.580Z,76.44
2023-03-25T12:17:52.292Z,76.52
2023-03-25T12:20:16.916Z,76.54
2023-03-25T12:22:40.545Z,76.61
2023-03-25T12:25:11.804Z,76.47
2023-03-25T12:27:37.530Z,76.49
2023-03-25T12:29:55.969Z,76.60
2023-03-25T12:32:23.283Z,76.51
2023-03-25T12:34:50.471Z,76.43
2023-03-25T12:37:12.597Z,76.39
2023-03-25T12:39:42.201Z,76.43
2023-03-25T12:42:07.954Z,76.37
2023-03-25T12:44:34.901Z,76.38
2023-03-25T12:47:17.682Z,76.30
2023-03-25T12:49:46.797Z,76.26
2023-03-25T12:52:08.057Z,76.28
2023-03-25T12:54:37.364Z,76.42
2023-03-25T12:56:57.736Z,76.36
2023-03-25T12:59:39.643Z,76.42
2023-03-25T13:02:04.365Z,76.43
2023-03-25T13:04:39.262Z,76.35
2023-03-25T13:07:03.900Z,76.41
2023-03-25T13:09:24.863Z,76.41
2023-03-25T13:11:42.129Z,76.43
2023-03-25T13:13:57.838Z,76.44
2023-03-25T13:16:16.282Z,76.29
2023-03-25T13:18:32.800Z,76.33
2023-03-25T13:20:50.609Z,76.43
2023-03-25T13:23:07.222Z,76.40
2023-03-25T13:25:29.514Z,76.30
2023-03-25T13:27:46.248Z,76.40
2023-03-25T13:30:02.480Z,76.38
2023-03-25T13:32:21.237Z,76.56
2023-03-25T13:34:39.098Z,76.49
2023-03-25T13:37:00.547Z,76.63
2023-03-25T13:39:22.555Z,76.63
2023-03-25T13:41:42.134Z,76.66
2023-03-25T13:44:04.390Z,76.79
2023-03-25T13:46:20.930Z,76.79
2023-03-25T13:48:40.038Z,76.84
2023-03-25T13:50:53.799Z,76.88
2023-03-25T13:53:10.858Z,77.11
2023-03-25T13:55:28.051Z,76.96
2023-03-25T13:58:06.641Z,76.93
2023-03-25T14:00:44.947Z,77.10
2023-03-25T14:03:42.490Z,77.11
2023-03-25T14:06:30.537Z,77.20
2023-03-25T14:09:20.072Z,77.25
2023-03-25T14:11:38.076Z,77.22
2023-03-25T14:13:55.947Z,77.16
2023-03-25T14:16:13.471Z,77.37
2023-03-25T14:18:26.380Z,77.39
2023-03-25T14:20:43.862Z,77.31
2023-03-25T14:23:02.396Z,77.31
2023-03-25T14:25:30.446Z,77.14
2023-03-25T14:27:43.606Z,77.18
2023-03-25T14:30:01.766Z,77.24
2023-03-25T14:32:33.951Z,77.30
2023-03-25T14:34:50.510Z,77.27
2023-03-25T14:37:29.819Z,77.21
2023-03-25T14:39:48.812Z,77.22
2023-03-25T14:42:14.381Z,77.30
2023-03-25T14:44:29.872Z,77.40
2023-03-25T14:46:47.584Z,77.38
2023-03-25T14:49:22.957Z,77.25
2023-03-25T14:51:59.878Z,77.26
2023-03-25T14:54:23.535Z,77.44
2023-03-25T14:56:45.419Z,77.29
2023-03-25T14:59:02.656Z,77.50
2023-03-25T15:01:20.617Z,77.48
2023-03-25T15:03:39.970Z,77.45
2023-03-25T15:06:00.906Z,77.43
2023-03-25T15:08:27.431Z,77.54
2023-03-25T15:10:43.339Z,77.44
2023-03-25T15:13:03.172Z,77.38
2023-03-25T15:15:33.582Z,77.61
2023-03-25T15:17:53.081Z,77.58
2023-03-25T15:20:38.689Z,77.69
2023-03-25T15:23:11.231Z,77.81
2023-03-25T15:25:25.067Z,77.92
2023-03-25T15:28:02.945Z,77.94
2023-03-25T15:30:42.259Z,78.04
2023-03-25T15:33:12.310Z,77.96
2023-03-25T15:35:56.033Z,78.02
2023-03-25T15:38:45.844Z,77.92
2023-03-25T15:41:14.963Z,77.85
2023-03-25T15:44:00.806Z,77.82
2023-03-25T15:46:39.524Z,77.74
2023-03-25T15:49:33.127Z,77.75
2023-03-25T15:52:01.770Z,77.68
2023-03-25T15:54:31.589Z,77.75
2023-03-25T15:56:48.863Z,78.01
2023-03-25T15:59:06.633Z,77.85
2023-03-25T16:01:31.158Z,78.01
2023-03-25T16:03:47.371Z,77.99
2023-03-25T16:06:02.681Z,78.07
2023-03-25T16:08:20.851Z,77.87
2023-03-25T16:10:37.298Z,77.90
2023-03-25T16:12:53.583Z,77.94
2023-03-25T16:15:11.400Z,78.35
2023-03-25T16:17:29.799Z,78.57
2023-03-25T16:19:45.773Z,78.27
2023-03-25T16:22:04.724Z,78.27
2023-03-25T16:24:18.686Z,78.53
2023-03-25T16:26:43.536Z,78.63
2023-03-25T16:28:58.663Z,78.42
2023-03-25T16:31:17.619Z,78.49
2023-03-25T16:33:32.904Z,78.34
2023-03-25T16:35:48.704Z,78.02
2023-03-25T16:38:04.901Z,78.11
2023-03-25T16:40:28.116Z,77.94
2023-03-25T16:42:41.159Z,78.02
2023-03-25T16:44:54.281Z,78.00
2023-03-25T16:47:07.619Z,77.94
2023-03-25T16:49:29.506Z,77.85
2023-03-25T16:51:42.446Z,77.91
2023-03-25T16:53:57.260Z,77.68
2023-03-25T16:56:28.116Z,77.63
2023-03-25T16:58:57.184Z,77.77
2023-03-25T17:01:17.692Z,77.81
2023-03-25T17:03:47.161Z,77.76
2023-03-25T17:06:08.052Z,77.76
2023-03-25T17:08:23.571Z,77.80
2023-03-25T17:10:47.092Z,77.34
2023-03-25T17:13:06.357Z,77.24
2023-03-25T17:15:23.140Z,77.15
2023-03-25T17:17:43.136Z,77.30
2023-03-25T17:19:57.711Z,77.35
2023-03-25T17:22:18.911Z,77.39
2023-03-25T17:24:37.964Z,77.25
2023-03-25T17:27:09.217Z,77.08
2023-03-25T17:29:23.277Z,77.24
2023-03-25T17:31:38.940Z,77.07
2023-03-25T17:33:54.134Z,76.96
2023-03-25T17:36:11.840Z,76.85
2023-03-25T17:38:30.711Z,77.03
2023-03-25T17:40:43.343Z,76.87
2023-03-25T17:42:56.721Z,77.09
2023-03-25T17:45:10.190Z,76.95
2023-03-25T17:47:24.841Z,76.68
2023-03-25T17:49:37.907Z,76.38
2023-03-25T17:51:51.374Z,76.67
2023-03-25T17:54:03.970Z,76.46
2023-03-25T17:56:19.019Z,76.45
2023-03-25T17:58:31.855Z,76.17
2023-03-25T18:00:44.987Z,76.18
2023-03-25T18:02:58.019Z,75.91
2023-03-25T18:05:13.571Z,75.56
2023-03-25T18:07:26.591Z,75.76
2023-03-25T18:09:40.858Z,75.77
2023-03-25T18:11:55.806Z,75.27
2023-03-25T18:14:09.233Z,75.59
2023-03-25T18:16:24.547Z,75.48
2023-03-25T18:18:38.237Z,75.62
2023-03-25T18:20:54.005Z,75.80
2023-03-25T18:23:07.564Z,75.72
2023-03-25T18:25:20.576Z,75.35
2023-03-25T18:27:43.383Z,75.36
2023-03-25T18:29:57.706Z,75.26
2023-03-25T18:32:11.232Z,75.15
2023-03-25T18:34:26.599Z,75.19
2023-03-25T18:36:39.515Z,75.27
2023-03-25T18:38:53.190Z,74.87
2023-03-25T18:41:06.636Z,75.10
2023-03-25T18:43:20.114Z,75.23
2023-03-25T18:45:32.917Z,75.12
2023-03-25T18:47:45.523Z,74.99
2023-03-25T18:49:59.883Z,74.96
2023-03-25T18:52:13.483Z,74.81
2023-03-25T18:54:26.330Z,74.52
2023-03-25T18:56:38.968Z,74.78
2023-03-25T18:58:51.637Z,74.69
2023-03-25T19:01:05.334Z,74.90
2023-03-25T19:03:18.461Z,74.87
2023-03-25T19:05:31.604Z,75.07
2023-03-25T19:07:45.771Z,75.55
2023-03-25T19:09:58.538Z,75.94
2023-03-25T19:12:12.164Z,76.45
2023-03-25T19:14:25.437Z,75.79
2023-03-25T19:16:38.560Z,74.82
2023-03-25T19:18:51.677Z,74.43
2023-03-25T19:21:05.164Z,73.94
2023-03-25T19:23:18.997Z,73.06
2023-03-25T19:25:32.160Z,71.43
2023-03-25T19:27:45.458Z,71.11
2023-03-25T19:29:58.201Z,70.69
2023-03-25T19:32:11.499Z,69.43
2023-03-25T19:34:25.154Z,69.49
2023-03-25T19:36:40.489Z,68.26
2023-03-25T19:38:54.220Z,67.36
2023-03-25T19:41:12.806Z,66.77
2023-03-25T19:43:26.000Z,67.23
2023-03-25T19:45:39.156Z,66.95
2023-03-25T19:47:53.361Z,66.47
2023-03-25T19:50:06.183Z,66.23
2023-03-25T19:52:19.381Z,66.18
2023-03-25T19:54:33.116Z,66.13
2023-03-25T19:56:46.147Z,65.99
2023-03-25T19:59:00.174Z,65.41
2023-03-25T20:01:14.258Z,65.24
2023-03-25T20:03:27.718Z,65.40
2023-03-25T20:05:40.683Z,65.39
2023-03-25T20:07:56.041Z,66.03
2023-03-25T20:10:19.669Z,66.51
2023-03-25T20:12:36.780Z,66.68
2023-03-25T20:14:51.279Z,65.74
2023-03-25T20:17:04.734Z,64.66
2023-03-25T20:19:17.853Z,64.14
2023-03-25T20:21:31.555Z,63.26
2023-03-25T20:23:46.281Z,63.39
2023-03-25T20:25:59.202Z,64.16
2023-03-25T20:28:11.979Z,64.20
2023-03-25T20:30:25.448Z,63.52
2023-03-25T20:32:41.717Z,63.41
2023-03-25T20:34:55.776Z,63.60
2023-03-25T20:37:08.709Z,63.32
2023-03-25T20:39:24.144Z,62.98
2023-03-25T20:41:37.049Z,61.45
2023-03-25T20:43:50.187Z,61.40
2023-03-25T20:46:03.868Z,61.46
2023-03-25T20:48:16.321Z,61.35
2023-03-25T20:50:29.205Z,60.47
2023-03-25T20:52:42.536Z,59.96
2023-03-25T20:54:59.097Z,59.85
2023-03-25T20:57:12.459Z,58.69
2023-03-25T20:59:26.230Z,58.63
2023-03-25T21:01:39.721Z,58.77
2023-03-25T21:03:54.346Z,58.77
2023-03-25T21:06:22.729Z,58.14
2023-03-25T21:08:38.485Z,57.92
2023-03-25T21:10:56.514Z,57.31
2023-03-25T21:13:10.413Z,56.19
2023-03-25T21:15:23.926Z,56.11
2023-03-25T21:17:37.508Z,55.80
2023-03-25T21:19:51.311Z,55.39
2023-03-25T21:22:04.671Z,55.28
2023-03-25T21:24:22.400Z,54.94
2023-03-25T21:26:35.964Z,55.06
2023-03-25T21:28:49.634Z,54.90
2023-03-25T21:31:10.634Z,54.57
2023-03-25T21:33:24.360Z,54.35
2023-03-25T21:35:37.834Z,54.50
2023-03-25T21:37:52.833Z,54.38
2023-03-25T21:40:05.965Z,53.61
2023-03-25T21:42:18.851Z,53.86
2023-03-25T21:44:31.990Z,53.75
2023-03-25T21:46:47.833Z,53.74
2023-03-25T21:49:02.035Z,53.46
2023-03-25T21:51:15.670Z,52.88
2023-03-25T21:53:32.286Z,53.16
2023-03-25T21:55:45.886Z,52.75
2023-03-25T21:58:00.562Z,52.06
2023-03-25T22:00:17.625Z,52.27
2023-03-25T22:02:30.901Z,51.87
2023-03-25T22:04:45.345Z,51.38
2023-03-25T22:06:58.408Z,51.12
2023-03-25T22:09:12.472Z,51.03
2023-03-25T22:11:27.089Z,51.14
2023-03-25T22:13:41.092Z,50.91
2023-03-25T22:15:54.031Z,50.01
2023-03-25T22:18:09.109Z,49.78
2023-03-25T22:20:25.729Z,49.47
2023-03-25T22:22:39.340Z,49.56
2023-03-25T22:24:53.252Z,49.81
2023-03-25T22:27:06.084Z,49.79
2023-03-25T22:29:19.156Z,49.66
2023-03-25T22:31:40.597Z,49.39
2023-03-25T22:33:55.936Z,49.27
2023-03-25T22:36:16.361Z,49.16
2023-03-25T22:38:29.762Z,49.15
2023-03-25T22:40:44.244Z,48.78
2023-03-25T22:42:57.614Z,48.82
2023-03-25T22:45:12.116Z,48.27
2023-03-25T22:47:27.716Z,48.35
2023-03-25T22:49:40.537Z,48.29
2023-03-25T22:51:53.603Z,48.77
2023-03-25T22:54:07.332Z,48.49
2023-03-25T22:56:21.395Z,48.62
2023-03-25T22:58:35.565Z,48.19
2023-03-25T23:00:50.560Z,48.07
2023-03-25T23:03:04.915Z,47.78
2023-03-25T23:05:19.747Z,47.31
2023-03-25T23:07:33.938Z,47.49
2023-03-25T23:09:48.664Z,47.90
2023-03-25T23:12:03.295Z,47.80
2023-03-25T23:14:17.513Z,47.57
2023-03-25T23:16:35.608Z,47.31
2023-03-25T23:18:49.198Z,47.16
2023-03-25T23:21:03.697Z,47.25
2023-03-25T23:23:16.308Z,47.55
2023-03-25T23:25:28.974Z,47.92
2023-03-25T23:27:42.141Z,47.69
2023-03-25T23:29:54.677Z,47.37
2023-03-25T23:32:09.306Z,47.45
2023-03-25T23:34:22.407Z,47.54
2023-03-25T23:36:37.187Z,47.48
2023-03-25T23:38:50.991Z,47.33
2023-03-25T23:41:11.305Z,47.14
2023-03-25T23:43:25.413Z,46.59
2023-03-25T23:45:38.282Z,46.70
2023-03-25T23:47:50.970Z,46.63
2023-03-25T23:50:04.133Z,46.62
2023-03-25T23:52:16.928Z,46.34
2023-03-25T23:54:29.939Z,46.67
2023-03-25T23:56:43.926Z,46.76
2023-03-25T23:58:57.403Z,46.42
